Time;durP1;ratioP1;P1;durP2;ratioP2;P2;SDS_P1;SDS_P2;PMS_P1;PMS_P2;Temp;Humidity;BMP_temperature;BMP_pressure;BME280_temperature;BME280_humidity;BME280_pressure;Samples;Min_cycle;Max_cycle;Signal;HPM_P1;HPM_P2
2022/03/04 00:01:27;;;;;;;6.90;4.50;;;;;;;0.20;100.00;101595.38;5036064;28;20048;-81
2022/03/04 00:03:53;;;;;;;7.07;4.00;;;;;;;0.21;100.00;101592.84;5015659;28;20060;-82
2022/03/04 00:06:20;;;;;;;7.27;4.13;;;;;;;0.21;100.00;101592.84;5023545;28;20047;-82
2022/03/04 00:08:49;;;;;;;7.57;4.80;;;;;;;0.12;100.00;101602.00;5042445;28;20048;-83
2022/03/04 00:11:17;;;;;;;6.03;3.80;;;;;;;0.22;100.00;101598.91;5043848;28;20041;-83
2022/03/04 00:13:44;;;;;;;5.13;4.03;;;;;;;0.26;100.00;101601.69;5044261;28;20055;-84
2022/03/04 00:16:10;;;;;;;7.07;3.60;;;;;;;0.28;100.00;101594.84;5028216;28;20048;-82
2022/03/04 00:18:40;;;;;;;8.53;3.97;;;;;;;0.31;100.00;101593.16;5063583;28;20048;-81
2022/03/04 00:21:09;;;;;;;6.70;3.47;;;;;;;0.31;100.00;101588.84;5042090;28;20037;-82
2022/03/04 00:23:38;;;;;;;4.90;3.27;;;;;;;0.25;100.00;101594.72;5041951;28;20135;-83
2022/03/04 00:26:05;;;;;;;7.23;4.30;;;;;;;0.19;100.00;101602.28;5044422;28;20067;-81
2022/03/04 00:28:32;;;;;;;8.00;3.83;;;;;;;0.26;100.00;101603.41;5048946;28;20044;-81
2022/03/04 00:31:00;;;;;;;6.77;3.57;;;;;;;0.27;100.00;101603.47;5024408;28;20357;-82
2022/03/04 00:33:27;;;;;;;6.23;3.67;;;;;;;0.45;100.00;101604.94;5033649;28;20450;-81
2022/03/04 00:35:54;;;;;;;5.47;2.90;;;;;;;0.32;100.00;101607.94;5026527;28;20099;-82
2022/03/04 00:38:21;;;;;;;4.20;3.17;;;;;;;0.20;100.00;101614.47;5041939;28;20047;-80
2022/03/04 00:40:48;;;;;;;8.33;4.07;;;;;;;0.26;100.00;101616.41;5029976;28;20041;-82
2022/03/04 00:43:15;;;;;;;6.03;3.00;;;;;;;0.46;100.00;101611.91;5037760;28;20060;-82
2022/03/04 00:45:43;;;;;;;4.33;3.13;;;;;;;0.34;100.00;101609.78;5023046;28;20068;-83
2022/03/04 00:48:13;;;;;;;7.67;2.80;;;;;;;0.21;100.00;101607.53;5039633;28;20181;-83
2022/03/04 00:50:40;;;;;;;8.47;3.77;;;;;;;0.19;100.00;101617.88;5039202;28;20848;-82
2022/03/04 00:53:08;;;;;;;4.80;2.47;;;;;;;0.25;100.00;101615.53;5030278;28;20041;-82
2022/03/04 00:55:38;;;;;;;6.53;3.20;;;;;;;0.48;100.00;101612.84;5036341;28;20430;-82
2022/03/04 00:58:06;;;;;;;5.03;2.83;;;;;;;0.57;100.00;101608.84;5026749;28;20404;-82
2022/03/04 01:00:35;;;;;;;5.50;2.63;;;;;;;0.36;100.00;101604.63;5013221;28;20040;-81
2022/03/04 01:03:04;;;;;;;4.60;2.57;;;;;;;0.24;100.00;101592.06;5049288;28;20040;-82
2022/03/04 01:05:30;;;;;;;7.77;2.77;;;;;;;0.31;100.00;101591.44;5029300;28;20036;-81
2022/03/04 01:07:57;;;;;;;4.07;2.30;;;;;;;0.25;100.00;101592.13;5037433;28;20041;-81
2022/03/04 01:10:25;;;;;;;3.40;2.50;;;;;;;0.28;100.00;101596.56;5039433;28;20032;-83
2022/03/04 01:12:51;;;;;;;4.57;2.30;;;;;;;0.37;100.00;101593.41;5033705;28;20732;-82
2022/03/04 01:15:20;;;;;;;3.30;2.57;;;;;;;0.39;100.00;101596.94;5039571;28;20047;-83
2022/03/04 01:17:51;;;;;;;5.80;2.40;;;;;;;0.35;100.00;101595.06;5018713;28;20053;-82
2022/03/04 01:20:18;;;;;;;7.87;3.77;;;;;;;0.39;100.00;101594.31;5015930;28;20165;-82
2022/03/04 01:22:45;;;;;;;6.90;2.70;;;;;;;0.46;100.00;101598.91;5005810;28;20037;-83
2022/03/04 01:25:14;;;;;;;3.80;2.17;;;;;;;0.41;100.00;101600.47;5046398;28;20039;-82
2022/03/04 01:27:42;;;;;;;6.10;2.13;;;;;;;0.42;100.00;101599.63;5037886;28;20431;-82
2022/03/04 01:30:14;;;;;;;4.93;2.60;;;;;;;0.49;100.00;101594.69;5034382;28;20048;-82
2022/03/04 01:32:40;;;;;;;4.73;2.40;;;;;;;0.46;100.00;101589.41;5012936;28;20048;-82
2022/03/04 01:35:08;;;;;;;4.57;2.43;;;;;;;0.36;100.00;101587.31;5057569;28;20033;-81
2022/03/04 01:37:35;;;;;;;2.70;1.83;;;;;;;0.22;100.00;101579.00;5039819;28;20048;-83
2022/03/04 01:40:04;;;;;;;3.33;1.80;;;;;;;0.16;100.00;101588.28;5023500;28;20047;-82
2022/03/04 01:42:30;;;;;;;4.53;2.60;;;;;;;0.13;100.00;101580.41;5045659;28;20075;-83
2022/03/04 01:44:57;;;;;;;4.70;2.17;;;;;;;-0.01;100.00;101590.28;5043610;28;20045;-82
2022/03/04 01:47:24;;;;;;;4.07;1.80;;;;;;;-0.17;100.00;101588.84;5042984;28;20071;-81
2022/03/04 01:49:50;;;;;;;3.63;2.17;;;;;;;-0.17;100.00;101588.84;5041452;28;20106;-81
2022/03/04 01:52:17;;;;;;;3.63;2.33;;;;;;;-0.24;100.00;101586.81;5058522;28;20491;-82
2022/03/04 01:54:44;;;;;;;6.30;2.57;;;;;;;-0.39;100.00;101588.84;5051345;28;20503;-82
2022/03/04 01:57:11;;;;;;;3.97;1.93;;;;;;;-0.47;100.00;101580.75;5041981;28;20196;-81
2022/03/04 01:59:38;;;;;;;4.63;2.47;;;;;;;-0.52;100.00;101577.06;5039615;28;20098;-81
2022/03/04 02:02:04;;;;;;;4.23;2.07;;;;;;;-0.63;100.00;101581.84;5016402;28;20048;-81
2022/03/04 02:04:31;;;;;;;3.43;1.83;;;;;;;-0.79;100.00;101578.59;5032243;28;20075;-82
2022/03/04 02:06:58;;;;;;;3.03;2.00;;;;;;;-0.84;100.00;101583.59;5041094;28;20040;-81
2022/03/04 02:09:25;;;;;;;3.73;2.00;;;;;;;-0.90;100.00;101578.16;5039234;28;20072;-81
2022/03/04 02:11:51;;;;;;;3.27;2.10;;;;;;;-0.95;100.00;101577.06;5055317;28;20044;-82
2022/03/04 02:14:18;;;;;;;4.27;1.87;;;;;;;-1.01;100.00;101574.22;5010198;28;20411;-82
2022/03/04 02:16:50;;;;;;;3.43;1.70;;;;;;;-1.07;100.00;101576.59;5040754;28;20097;-81
2022/03/04 02:19:17;;;;;;;2.33;2.03;;;;;;;-1.19;100.00;101574.34;5039718;28;20143;-81
2022/03/04 02:21:58;;;;;;;3.07;1.70;;;;;;;-1.26;100.00;101568.06;5020841;28;20118;-83
2022/03/04 02:24:26;;;;;;;2.70;1.87;;;;;;;-1.27;100.00;101573.16;5037304;28;20098;-82
2022/03/04 02:26:54;;;;;;;4.23;1.83;;;;;;;-1.21;100.00;101574.31;5034358;28;20055;-82
2022/03/04 02:29:22;;;;;;;3.13;1.77;;;;;;;-1.33;100.00;101580.69;5037626;28;20043;-82
2022/03/04 02:31:49;;;;;;;2.73;1.93;;;;;;;-1.38;100.00;101574.41;5020490;28;20606;-83
2022/03/04 02:34:16;;;;;;;3.47;1.87;;;;;;;-1.39;100.00;101573.53;5025882;28;20102;-82
2022/03/04 02:36:43;;;;;;;4.40;2.03;;;;;;;-1.45;100.00;101579.34;5019965;28;20261;-81
2022/03/04 02:39:10;;;;;;;3.63;1.73;;;;;;;-1.50;100.00;101577.38;5038009;28;20497;-83
2022/03/04 02:41:37;;;;;;;3.63;1.83;;;;;;;-1.50;100.00;101586.03;5038150;28;20045;-83
2022/03/04 02:44:07;;;;;;;4.73;2.80;;;;;;;-1.44;100.00;101583.69;5021528;28;20040;-82
2022/03/04 02:46:34;;;;;;;3.70;2.17;;;;;;;-1.49;100.00;101582.63;5024742;28;20530;-82
2022/03/04 02:49:03;;;;;;;4.37;2.00;;;;;;;-1.47;100.00;101587.88;5014441;28;20118;-82
2022/03/04 02:51:30;;;;;;;5.67;2.23;;;;;;;-1.65;100.00;101584.50;5039714;28;20040;-82
2022/03/04 02:53:56;;;;;;;3.67;1.73;;;;;;;-1.73;100.00;101574.66;5020398;28;20512;-83
2022/03/04 02:56:23;;;;;;;3.23;2.00;;;;;;;-1.68;100.00;101586.94;5019421;28;20052;-83
2022/03/04 02:58:50;;;;;;;3.77;2.00;;;;;;;-1.78;100.00;101591.69;5050498;28;20044;-81
2022/03/04 03:01:17;;;;;;;4.00;2.47;;;;;;;-1.82;100.00;101591.53;5038213;28;20576;-84
2022/03/04 03:03:44;;;;;;;4.03;2.00;;;;;;;-1.78;100.00;101598.59;5029764;28;20045;-82
2022/03/04 03:06:11;;;;;;;3.00;1.77;;;;;;;-1.89;100.00;101585.16;5022798;28;20091;-83
2022/03/04 03:08:38;;;;;;;2.77;2.20;;;;;;;-1.95;100.00;101591.78;5037621;28;20037;-81
2022/03/04 03:11:05;;;;;;;4.93;2.00;;;;;;;-2.02;100.00;101590.59;5023674;28;20095;-84
2022/03/04 03:13:32;;;;;;;7.37;2.00;;;;;;;-2.09;100.00;101586.00;5024053;28;20036;-82
2022/03/04 03:15:58;;;;;;;3.10;1.90;;;;;;;-2.13;100.00;101600.47;5042562;28;20041;-82
2022/03/04 03:18:25;;;;;;;3.13;1.87;;;;;;;-2.22;100.00;101594.00;5027926;28;20705;-82
2022/03/04 03:20:52;;;;;;;3.30;2.13;;;;;;;-2.19;100.00;101588.94;5027157;28;20036;-83
2022/03/04 03:23:18;;;;;;;2.60;2.10;;;;;;;-2.26;100.00;101595.56;5022693;28;20052;-82
2022/03/04 03:25:45;;;;;;;4.87;2.30;;;;;;;-2.30;100.00;101591.06;5067255;23;20049;-79
2022/03/04 03:28:12;;;;;;;3.67;1.53;;;;;;;-2.36;100.00;101590.75;5008024;28;20414;-80
2022/03/04 03:30:38;;;;;;;3.23;1.73;;;;;;;-2.39;100.00;101588.94;5026203;28;20041;-80
2022/03/04 03:33:05;;;;;;;4.70;1.90;;;;;;;-2.39;100.00;101578.59;5031998;28;20102;-80
2022/03/04 03:35:32;;;;;;;4.23;1.70;;;;;;;-2.43;100.00;101581.84;5014472;28;20041;-80
2022/03/04 03:37:58;;;;;;;3.80;2.00;;;;;;;-2.47;100.00;101582.50;5010855;28;20045;-80
2022/03/04 03:40:25;;;;;;;3.17;1.80;;;;;;;-2.32;100.00;101590.09;5031181;28;20103;-80
2022/03/04 03:42:52;;;;;;;4.80;1.80;;;;;;;-2.35;100.00;101589.97;5032066;28;20044;-79
2022/03/04 03:45:19;;;;;;;3.33;1.97;;;;;;;-2.41;100.00;101582.81;5014408;28;20045;-80
2022/03/04 03:47:46;;;;;;;4.23;2.23;;;;;;;-2.37;100.00;101595.06;5024028;28;20044;-80
2022/03/04 03:50:12;;;;;;;4.83;2.30;;;;;;;-2.40;100.00;101591.44;5034142;28;20646;-80
2022/03/04 03:52:39;;;;;;;5.27;1.77;;;;;;;-2.49;100.00;101591.91;5014381;28;20458;-79
2022/03/04 03:55:07;;;;;;;4.97;2.03;;;;;;;-2.52;100.00;101596.03;5001171;28;20053;-80
2022/03/04 03:57:33;;;;;;;4.37;2.20;;;;;;;-2.63;100.00;101592.94;5017412;28;20084;-80
2022/03/04 04:00:00;;;;;;;2.37;1.50;;;;;;;-2.64;100.00;101601.53;5030865;28;20048;-79
2022/03/04 04:02:27;;;;;;;5.67;1.90;;;;;;;-2.54;100.00;101606.31;4990762;28;20048;-79
2022/03/04 04:04:54;;;;;;;3.00;1.70;;;;;;;-2.51;100.00;101603.00;4998847;28;20070;-79
2022/03/04 04:07:20;;;;;;;3.77;2.07;;;;;;;-2.59;100.00;101600.06;5015298;28;20090;-79
2022/03/04 04:09:47;;;;;;;3.33;2.10;;;;;;;-2.67;100.00;101606.56;5050774;28;20143;-80
2022/03/04 04:12:14;;;;;;;2.20;1.97;;;;;;;-2.67;100.00;101598.81;5016064;28;20458;-80
2022/03/04 04:14:40;;;;;;;5.53;1.90;;;;;;;-2.60;100.00;101603.47;5008633;28;20059;-80
2022/03/04 04:17:07;;;;;;;4.33;1.80;;;;;;;-2.69;100.00;101595.22;5010078;28;20103;-80
2022/03/04 04:19:34;;;;;;;3.87;1.63;;;;;;;-2.71;100.00;101602.94;5016045;28;20044;-80
2022/03/04 04:22:01;;;;;;;3.13;1.70;;;;;;;-2.58;100.00;101599.25;5022996;28;20051;-79
2022/03/04 04:24:35;;;;;;;3.03;1.57;;;;;;;-2.69;100.00;101598.75;5011294;28;20084;-80
2022/03/04 04:27:31;;;;;;;2.53;1.67;;;;;;;-2.75;100.00;101606.19;5035774;28;20041;-81
2022/03/04 04:31:34;;;;;;;5.03;1.70;;;;;;;-2.86;100.00;101594.41;5059390;28;20064;-80
2022/03/04 04:34:30;;;;;;;2.30;1.77;;;;;;;-2.92;100.00;101599.31;5013790;28;20042;-80
2022/03/04 04:37:11;;;;;;;6.80;1.70;;;;;;;-2.86;100.00;101603.09;4995399;28;20045;-79
2022/03/04 04:40:06;;;;;;;5.00;2.30;;;;;;;-2.96;100.00;101597.38;5175633;22;20043;-80
2022/03/04 04:42:35;;;;;;;;;;;;;;;-2.96;100.00;101600.84;5037394;28;20052;-79
2022/03/04 04:45:03;;;;;;;3.67;2.53;;;;;;;-3.07;100.00;101603.72;5023319;28;19939;-80
2022/03/04 04:47:29;;;;;;;2.77;1.90;;;;;;;-2.97;100.00;101609.41;5020878;28;20581;-81
2022/03/04 04:49:56;;;;;;;2.63;1.80;;;;;;;-3.07;100.00;101602.03;5001900;28;20045;-79
2022/03/04 04:52:24;;;;;;;4.90;1.90;;;;;;;-3.02;100.00;101603.16;5018634;28;20588;-82
2022/03/04 04:54:54;;;;;;;4.97;1.90;;;;;;;-2.98;100.00;101592.13;5010673;28;20037;-79
2022/03/04 04:57:36;;;;;;;3.97;2.20;;;;;;;-3.00;100.00;101600.63;5024661;28;20088;-80
2022/03/04 05:00:22;;;;;;;3.43;2.00;;;;;;;-3.07;100.00;101604.63;5014822;28;20049;-80
2022/03/04 05:03:06;;;;;;;2.97;1.83;;;;;;;-3.11;100.00;101610.47;5040025;28;20060;-80
2022/03/04 05:05:55;;;;;;;6.83;2.23;;;;;;;-3.09;100.00;101610.53;5045832;28;20053;-79
2022/03/04 05:08:36;;;;;;;3.20;1.80;;;;;;;-3.20;100.00;101612.56;5029172;28;20072;-80
2022/03/04 05:11:19;;;;;;;3.53;2.00;;;;;;;-3.31;100.00;101605.97;5036495;28;20056;-80
2022/03/04 05:13:53;;;;;;;2.27;1.50;;;;;;;-3.35;100.00;101607.53;4999916;28;20056;-79
2022/03/04 05:16:32;;;;;;;3.00;1.57;;;;;;;-3.41;100.00;101612.38;5026083;28;20037;-80
2022/03/04 05:19:04;;;;;;;4.23;1.80;;;;;;;-3.45;100.00;101611.34;5032815;28;20075;-79
2022/03/04 05:21:40;;;;;;;4.97;1.73;;;;;;;-3.39;100.00;101608.16;5013350;28;20056;-80
2022/03/04 05:24:19;;;;;;;3.60;1.97;;;;;;;-3.48;100.00;101618.91;5037342;28;20044;-80
2022/03/04 05:27:00;;;;;;;3.63;1.90;;;;;;;-3.54;100.00;101617.72;5035335;28;20067;-80
2022/03/04 05:29:33;;;;;;;2.17;1.60;;;;;;;-3.50;100.00;101615.38;5024809;28;20048;-80
2022/03/04 05:32:12;;;;;;;3.30;1.53;;;;;;;-3.51;100.00;101620.47;5030617;28;20043;-80
2022/03/04 05:34:46;;;;;;;2.58;1.50;;;;;;;-3.55;100.00;101621.09;5031950;28;20044;-79
2022/03/04 05:37:20;;;;;;;3.40;1.50;;;;;;;-3.53;100.00;101630.72;5030637;28;20038;-79
2022/03/04 05:39:55;;;;;;;4.13;2.40;;;;;;;-3.56;100.00;101625.38;5031287;28;20105;-80
2022/03/04 05:42:26;;;;;;;3.53;1.97;;;;;;;-3.52;100.00;101629.91;5031345;28;20056;-79
2022/03/04 05:45:01;;;;;;;2.25;1.60;;;;;;;-3.59;100.00;101627.81;5010891;28;20077;-80
2022/03/04 05:47:38;;;;;;;1.90;1.40;;;;;;;-3.53;100.00;101632.38;4998829;28;20042;-80
2022/03/04 05:50:11;;;;;;;7.97;1.83;;;;;;;-3.58;100.00;101632.16;5016885;28;20045;-80
2022/03/04 05:52:45;;;;;;;3.10;1.60;;;;;;;-3.42;100.00;101647.66;5013492;28;20045;-80
2022/03/04 05:55:24;;;;;;;3.23;1.70;;;;;;;-3.37;100.00;101636.66;5022739;28;20053;-79
2022/03/04 05:57:59;;;;;;;3.83;1.70;;;;;;;-3.22;100.00;101655.53;5030158;28;20041;-80
2022/03/04 06:00:42;;;;;;;3.73;1.67;;;;;;;-3.21;100.00;101658.19;5025737;28;20068;-80
2022/03/04 06:03:58;;;;;;;4.40;2.30;;;;;;;-3.13;100.00;101663.75;5052597;28;20099;-80
2022/03/04 06:07:01;;;;;;;6.45;2.40;;;;;;;-3.07;100.00;101658.91;5041513;28;20037;-80
2022/03/04 06:09:39;;;;;;;3.40;1.80;;;;;;;-3.01;100.00;101666.97;5014572;28;20049;-79
2022/03/04 06:12:14;;;;;;;3.93;2.20;;;;;;;-2.92;100.00;101675.19;5037050;28;20041;-79
2022/03/04 06:15:33;;;;;;;2.67;1.50;;;;;;;-2.85;100.00;101679.84;5042160;28;20056;-79
2022/03/04 06:18:00;;;;;;;2.67;1.60;;;;;;;-2.81;100.00;101673.13;5011200;28;20037;-79
2022/03/04 06:20:27;;;;;;;4.90;2.10;;;;;;;-2.69;100.00;101671.16;5009145;28;20037;-79
2022/03/04 06:22:53;;;;;;;2.60;1.60;;;;;;;-2.67;100.00;101679.00;5002549;28;20106;-78
2022/03/04 06:25:20;;;;;;;3.13;2.00;;;;;;;-2.48;100.00;101670.41;5014070;28;20087;-78
2022/03/04 06:27:58;;;;;;;4.50;2.43;;;;;;;-2.34;100.00;101674.56;5015985;28;20076;-81
2022/03/04 06:30:27;;;;;;;4.87;2.03;;;;;;;-2.34;100.00;101674.56;5012770;28;20048;-82
2022/03/04 06:33:30;;;;;;;10.63;2.37;;;;;;;-2.36;100.00;101671.88;5018932;28;20060;-79
2022/03/04 06:35:42;;;;;;;3.37;2.20;;;;;;;-2.27;100.00;101677.53;5018357;28;20136;-82
2022/03/04 06:38:09;;;;;;;4.80;2.40;;;;;;;-2.28;100.00;101678.31;5018805;28;20044;-79
2022/03/04 06:40:36;;;;;;;4.50;1.97;;;;;;;-2.18;100.00;101690.00;5034718;28;20056;-79
2022/03/04 06:43:04;;;;;;;4.70;2.03;;;;;;;-2.17;100.00;101685.72;5034908;28;20132;-79
2022/03/04 06:45:31;;;;;;;4.07;1.93;;;;;;;-2.13;100.00;101687.63;5018175;28;20114;-79
2022/03/04 06:47:58;;;;;;;4.53;2.27;;;;;;;-2.06;100.00;101687.97;5034734;28;20045;-79
2022/03/04 06:50:25;;;;;;;3.97;2.27;;;;;;;-1.96;100.00;101691.00;5017842;28;20045;-82
2022/03/04 06:52:52;;;;;;;3.73;2.30;;;;;;;-1.83;100.00;101694.25;5018403;28;20049;-80
2022/03/04 06:55:19;;;;;;;3.63;2.10;;;;;;;-1.83;100.00;101696.81;5018166;28;20045;-79
2022/03/04 06:57:51;;;;;;;5.77;2.60;;;;;;;-1.78;100.00;101695.31;5027100;28;20041;-83
2022/03/04 07:00:18;;;;;;;6.97;2.07;;;;;;;-1.72;100.00;101695.59;5018232;28;20115;-79
2022/03/04 07:02:45;;;;;;;8.00;2.30;;;;;;;-1.53;100.00;101704.22;5017209;28;20041;-79
2022/03/04 07:05:12;;;;;;;2.67;1.93;;;;;;;-1.59;100.00;101702.25;4997760;28;20489;-79
2022/03/04 07:07:39;;;;;;;4.40;2.10;;;;;;;-1.44;100.00;101710.69;5033492;28;20044;-79
2022/03/04 07:10:06;;;;;;;4.50;2.17;;;;;;;-1.38;100.00;101709.19;4995784;28;20630;-79
2022/03/04 07:12:33;;;;;;;4.53;2.23;;;;;;;-1.34;100.00;101709.41;5000635;28;20103;-79
2022/03/04 07:14:59;;;;;;;4.73;2.27;;;;;;;-1.28;100.00;101709.66;5052344;28;20037;-79
2022/03/04 07:17:26;;;;;;;4.03;2.43;;;;;;;-1.18;100.00;101714.47;5035175;28;20041;-80
2022/03/04 07:19:53;;;;;;;4.97;2.80;;;;;;;-1.01;100.00;101714.28;5016983;28;20048;-79
2022/03/04 07:22:19;;;;;;;6.53;2.70;;;;;;;-0.92;100.00;101715.59;5033530;28;20052;-79
2022/03/04 07:24:46;;;;;;;3.40;2.23;;;;;;;-0.86;100.00;101717.53;4998384;28;20056;-79
2022/03/04 07:27:12;;;;;;;5.20;2.77;;;;;;;-0.68;100.00;101715.72;5012348;28;20049;-80
2022/03/04 07:29:39;;;;;;;4.93;3.20;;;;;;;-0.60;100.00;101709.13;5039588;28;20045;-80
2022/03/04 07:32:06;;;;;;;4.77;2.63;;;;;;;-0.61;100.00;101717.75;4999848;28;20057;-80
2022/03/04 07:34:33;;;;;;;5.37;2.40;;;;;;;-0.51;100.00;101724.19;5029750;28;20044;-80
2022/03/04 07:36:59;;;;;;;4.07;2.43;;;;;;;-0.43;100.00;101724.50;5022207;28;20088;-80
2022/03/04 07:39:26;;;;;;;5.23;2.67;;;;;;;-0.32;100.00;101725.84;5003699;28;20045;-80
2022/03/04 07:41:53;;;;;;;3.40;2.20;;;;;;;-0.29;100.00;101721.66;5033076;28;20522;-79
2022/03/04 07:44:19;;;;;;;8.00;3.90;;;;;;;-0.29;100.00;101731.16;5016894;28;20048;-81
2022/03/04 07:46:47;;;;;;;5.27;2.97;;;;;;;-0.15;100.00;101737.81;5033240;28;20037;-79
2022/03/04 07:49:14;;;;;;;7.67;3.93;;;;;;;-0.17;100.00;101736.88;5032999;28;20534;-79
2022/03/04 07:51:41;;;;;;;8.03;3.80;;;;;;;-0.12;100.00;101735.31;5000272;28;20110;-79
2022/03/04 07:54:07;;;;;;;6.80;3.83;;;;;;;0.07;100.00;101736.03;5000054;28;20140;-82
2022/03/04 07:56:34;;;;;;;8.30;4.00;;;;;;;0.19;100.00;101736.53;5016768;28;20500;-80
2022/03/04 07:59:00;;;;;;;6.97;4.30;;;;;;;0.20;100.00;101744.38;5014057;28;20049;-79
2022/03/04 08:01:27;;;;;;;8.53;3.77;;;;;;;0.26;100.00;101743.75;5015661;28;20045;-80
2022/03/04 08:03:54;;;;;;;6.47;3.23;;;;;;;0.31;100.00;101744.81;4999898;28;20041;-80
2022/03/04 08:06:21;;;;;;;6.97;4.00;;;;;;;0.30;100.00;101747.34;5021265;28;20392;-80
2022/03/04 08:08:48;;;;;;;6.67;3.50;;;;;;;0.39;100.00;101751.19;5030194;28;20102;-82
2022/03/04 08:11:14;;;;;;;13.40;4.63;;;;;;;0.50;100.00;101748.97;5000389;28;20046;-81
2022/03/04 08:13:41;;;;;;;8.53;4.03;;;;;;;0.67;100.00;101753.09;4995696;28;20045;-79
2022/03/04 08:16:08;;;;;;;5.87;4.20;;;;;;;0.84;100.00;101761.50;4999337;28;20037;-81
2022/03/04 08:18:35;;;;;;;7.10;4.00;;;;;;;1.07;100.00;101754.53;5016394;28;20049;-79
2022/03/04 08:21:03;;;;;;;9.10;4.50;;;;;;;1.03;100.00;101753.56;5031820;28;20132;-79
2022/03/04 08:23:30;;;;;;;8.53;3.43;;;;;;;1.12;100.00;101748.69;5015373;28;20049;-79
2022/03/04 08:26:03;;;;;;;7.90;3.93;;;;;;;1.14;100.00;101748.72;4999579;28;20493;-82
2022/03/04 08:28:33;;;;;;;7.13;3.78;;;;;;;1.15;100.00;101742.69;5000816;28;20400;-78
2022/03/04 08:31:03;;;;;;;8.87;3.37;;;;;;;1.13;100.00;101746.97;5015014;28;20041;-81
2022/03/04 08:33:30;;;;;;;6.43;3.60;;;;;;;1.26;100.00;101754.38;5011329;28;20056;-81
2022/03/04 08:35:57;;;;;;;6.53;3.77;;;;;;;1.16;100.00;101757.47;4989435;28;20449;-79
2022/03/04 08:38:24;;;;;;;6.90;3.43;;;;;;;1.16;100.00;101749.66;5016861;28;20037;-79
2022/03/04 08:40:50;;;;;;;7.93;3.47;;;;;;;1.41;100.00;101759.22;4981009;28;20049;-79
2022/03/04 08:43:22;;;;;;;7.20;3.50;;;;;;;1.51;100.00;101758.69;5027907;28;20041;-80
2022/03/04 08:45:59;;;;;;;8.37;3.47;;;;;;;1.76;100.00;101756.91;5026075;28;20052;-81
2022/03/04 08:48:49;;;;;;;7.00;3.70;;;;;;;2.06;100.00;101749.19;5055875;28;20046;-79
2022/03/04 08:51:59;;;;;;;6.03;3.30;;;;;;;2.04;100.00;101751.75;5050197;28;20064;-80
2022/03/04 08:54:27;;;;;;;5.30;2.53;;;;;;;2.15;100.00;101757.28;4999232;28;20045;-81
2022/03/04 08:56:53;;;;;;;4.10;2.63;;;;;;;2.34;100.00;101751.81;5011473;28;20451;-81
2022/03/04 08:59:20;;;;;;;4.93;2.50;;;;;;;2.25;100.00;101755.00;5038397;28;20037;-79
2022/03/04 09:01:47;;;;;;;3.87;2.20;;;;;;;2.24;100.00;101757.59;4998239;28;20092;-80
2022/03/04 09:04:17;;;;;;;2.73;2.03;;;;;;;2.30;100.00;101756.91;5028022;28;20435;-81
2022/03/04 09:06:44;;;;;;;5.27;2.20;;;;;;;2.62;100.00;101752.66;5000379;28;20071;-82
2022/03/04 09:09:11;;;;;;;4.67;2.17;;;;;;;2.49;98.44;101759.22;5015964;28;20103;-80
2022/03/04 09:11:37;;;;;;;4.03;1.93;;;;;;;2.58;98.85;101756.88;5014798;28;20041;-81
2022/03/04 09:14:04;;;;;;;3.17;1.50;;;;;;;2.71;98.87;101761.63;4999434;28;20743;-81
2022/03/04 09:16:31;;;;;;;3.17;1.20;;;;;;;2.92;92.57;101763.94;5015843;28;20041;-80
2022/03/04 09:18:57;;;;;;;4.63;1.70;;;;;;;2.85;89.63;101753.28;4998198;28;20631;-80
2022/03/04 09:21:24;;;;;;;4.47;1.20;;;;;;;3.00;92.57;101759.81;5015607;28;20044;-81
2022/03/04 09:23:51;;;;;;;2.63;1.40;;;;;;;2.91;91.87;101762.19;5002799;28;20053;-81
2022/03/04 09:26:17;;;;;;;4.20;1.57;;;;;;;3.15;90.95;101756.75;5001688;28;20064;-81
2022/03/04 09:28:44;;;;;;;3.07;1.50;;;;;;;3.29;88.14;101759.75;5100479;23;20021;-80
2022/03/04 09:31:11;;;;;;;4.87;1.97;;;;;;;3.28;85.01;101755.34;5011499;28;20076;-81
2022/03/04 09:33:38;;;;;;;5.27;1.63;;;;;;;3.08;85.14;101750.47;4996726;28;20050;-80
2022/03/04 09:36:05;;;;;;;1.93;1.20;;;;;;;3.23;85.26;101762.19;5021870;28;20042;-80
2022/03/04 09:38:33;;;;;;;3.50;1.20;;;;;;;3.34;84.72;101764.25;5027724;28;20120;-79
2022/03/04 09:41:00;;;;;;;2.87;1.20;;;;;;;3.18;83.10;101762.06;5035498;28;20041;-80
2022/03/04 09:43:27;;;;;;;4.93;1.30;;;;;;;2.96;82.79;101764.94;5016111;28;20243;-80
2022/03/04 09:45:54;;;;;;;2.60;1.30;;;;;;;3.09;84.61;101761.81;5013840;28;20459;-80
2022/03/04 09:48:21;;;;;;;5.90;1.37;;;;;;;3.03;81.39;101765.16;5037273;28;20105;-79
2022/03/04 09:50:48;;;;;;;3.03;1.13;;;;;;;3.18;82.50;101758.56;5021234;28;20044;-80
2022/03/04 09:53:16;;;;;;;4.17;1.40;;;;;;;3.34;77.19;101753.78;5027425;28;20512;-80
2022/03/04 09:55:43;;;;;;;2.20;0.93;;;;;;;3.43;77.99;101755.75;4998003;28;20076;-80
2022/03/04 09:58:10;;;;;;;2.37;1.00;;;;;;;3.40;77.21;101758.31;5011648;28;20095;-79
2022/03/04 10:00:41;;;;;;;4.43;1.00;;;;;;;3.58;77.79;101765.72;5005665;28;20049;-79
2022/03/04 10:03:20;;;;;;;2.77;1.30;;;;;;;3.36;75.79;101770.41;5005268;28;20045;-79
2022/03/04 10:05:53;;;;;;;3.67;1.80;;;;;;;3.22;75.06;101766.53;4998392;28;20048;-80
2022/03/04 10:08:21;;;;;;;2.10;0.82;;;;;;;3.17;76.67;101772.47;5004969;28;20049;-80
2022/03/04 10:10:52;;;;;;;0.90;0.87;;;;;;;2.99;74.61;101763.28;5017682;28;20044;-79
2022/03/04 10:13:42;;;;;;;4.57;1.10;;;;;;;2.85;76.44;101763.72;5020969;28;20083;-81
2022/03/04 10:16:13;;;;;;;3.63;1.00;;;;;;;2.76;77.51;101773.06;5017354;28;20412;-82
2022/03/04 10:18:40;;;;;;;1.93;1.30;;;;;;;2.63;76.21;101767.47;5022338;28;20132;-77
2022/03/04 10:21:06;;;;;;;4.20;1.00;;;;;;;2.64;77.68;101754.44;5007194;28;20115;-80
2022/03/04 10:23:33;;;;;;;3.27;1.37;;;;;;;2.36;75.55;101768.41;4997635;28;20101;-79
2022/03/04 10:26:01;;;;;;;1.93;1.27;;;;;;;2.59;76.18;101768.19;4984257;28;20052;-79
2022/03/04 10:28:30;;;;;;;4.00;1.57;;;;;;;2.66;76.41;101765.81;5012491;28;20045;-80
2022/03/04 10:30:58;;;;;;;3.23;1.40;;;;;;;2.86;75.02;101765.50;5015493;28;20052;-82
2022/03/04 10:33:44;;;;;;;3.60;1.30;;;;;;;3.51;76.86;101751.63;5016534;28;20131;-81
2022/03/04 10:36:13;;;;;;;3.53;2.17;;;;;;;4.08;75.18;101759.13;4995457;28;20740;-81
2022/03/04 10:38:41;;;;;;;4.20;2.37;;;;;;;4.35;71.37;101752.75;5019450;28;20045;-79
2022/03/04 10:41:33;;;;;;;2.70;1.17;;;;;;;4.48;69.21;101744.34;5020101;28;20049;-80
2022/03/04 10:44:01;;;;;;;5.70;1.80;;;;;;;4.15;68.81;101739.25;5019215;28;20052;-79
2022/03/04 10:46:55;;;;;;;7.23;1.60;;;;;;;3.84;69.15;101748.09;5032360;28;20042;-80
2022/03/04 10:49:26;;;;;;;3.47;1.00;;;;;;;3.82;70.60;101758.50;5006991;28;20060;-80
2022/03/04 10:52:05;;;;;;;2.30;1.20;;;;;;;3.75;71.83;101753.97;4988562;28;20420;-80
2022/03/04 10:54:32;;;;;;;4.70;1.87;;;;;;;3.56;72.68;101755.25;5014065;28;20041;-82
2022/03/04 10:57:03;;;;;;;8.07;1.97;;;;;;;3.64;73.62;101755.44;5022381;28;20049;-81
2022/03/04 10:59:30;;;;;;;3.73;1.33;;;;;;;3.63;73.75;101746.72;5025102;28;20033;-80
2022/03/04 11:01:56;;;;;;;2.67;1.40;;;;;;;3.58;74.65;101750.94;5014722;28;20524;-80
2022/03/04 11:04:23;;;;;;;2.13;1.20;;;;;;;3.33;73.58;101751.16;4986494;28;20052;-80
2022/03/04 11:06:50;;;;;;;1.40;1.00;;;;;;;3.52;75.31;101750.78;5025079;28;20041;-79
2022/03/04 11:09:24;;;;;;;2.67;1.23;;;;;;;3.36;74.86;101751.22;5013173;28;20037;-80
2022/03/04 11:11:52;;;;;;;1.90;1.00;;;;;;;3.47;73.43;101747.19;4999535;28;20037;-79
2022/03/04 11:14:22;;;;;;;2.70;1.17;;;;;;;3.51;73.48;101750.75;5016472;28;20053;-81
2022/03/04 11:16:49;;;;;;;4.20;1.30;;;;;;;3.40;71.46;101753.06;5016683;28;20049;-81
2022/03/04 11:19:18;;;;;;;3.00;1.10;;;;;;;3.44;71.76;101739.25;5032393;28;20037;-80
2022/03/04 11:21:45;;;;;;;3.43;1.10;;;;;;;3.60;71.08;101735.28;5021084;28;20083;-80
2022/03/04 11:24:12;;;;;;;3.30;1.07;;;;;;;3.56;71.05;101747.41;5015531;28;20091;-82
2022/03/04 11:26:43;;;;;;;3.17;0.97;;;;;;;3.65;72.50;101738.91;5026440;28;20099;-82
2022/03/04 11:29:33;;;;;;;3.63;1.50;;;;;;;3.77;71.99;101735.72;5018849;28;20048;-82
2022/03/04 11:32:01;;;;;;;2.83;1.20;;;;;;;3.87;71.61;101736.00;5018294;28;20557;-82
2022/03/04 11:34:36;;;;;;;3.90;1.10;;;;;;;3.52;69.90;101737.72;5023329;28;20135;-80
2022/03/04 11:37:03;;;;;;;1.80;1.20;;;;;;;3.72;70.53;101735.63;5006498;28;20044;-79